createdAt,value
2022-12-04T00:01:21.719Z,101117.88
2022-12-04T00:03:51.487Z,101111.78
2022-12-04T00:06:20.136Z,101107.56
2022-12-04T00:08:47.830Z,101111.03
2022-12-04T00:11:18.524Z,101115.44
2022-12-04T00:13:45.842Z,101119.75
2022-12-04T00:16:16.383Z,101115.47
2022-12-04T00:18:43.440Z,101120.69
2022-12-04T00:21:11.913Z,101118.91
2022-12-04T00:23:39.712Z,101115.38
2022-12-04T00:26:19.349Z,101125.09
2022-12-04T00:28:46.974Z,101124.34
2022-12-04T00:31:16.910Z,101126.97
2022-12-04T00:33:43.787Z,101131.38
2022-12-04T00:36:13.877Z,101133.97
2022-12-04T00:38:40.839Z,101133.03
2022-12-04T00:41:12.799Z,101128.78
2022-12-04T00:43:39.929Z,101123.63
2022-12-04T00:46:07.605Z,101117.56
2022-12-04T00:48:34.922Z,101115.06
2022-12-04T00:51:07.237Z,101114.22
2022-12-04T00:53:34.320Z,101123.81
2022-12-04T00:56:06.432Z,101124.72
2022-12-04T00:58:33.606Z,101116.78
2022-12-04T01:01:15.619Z,101128.09
2022-12-04T01:03:43.155Z,101123.66
2022-12-04T01:06:26.457Z,101120.22
2022-12-04T01:08:54.873Z,101120.97
2022-12-04T01:11:24.091Z,101128.75
2022-12-04T01:13:51.344Z,101131.28
2022-12-04T01:16:31.890Z,101119.13
2022-12-04T01:18:59.057Z,101119.91
2022-12-04T01:21:26.982Z,101121.75
2022-12-04T01:23:53.894Z,101121.63
2022-12-04T01:26:21.308Z,101121.59
2022-12-04T01:28:48.794Z,101130.81
2022-12-04T01:31:19.151Z,101121.47
2022-12-04T01:33:46.712Z,101121.50
2022-12-04T01:36:17.212Z,101121.59
2022-12-04T01:38:44.225Z,101117.00
2022-12-04T01:41:13.319Z,101115.97
2022-12-04T01:43:41.182Z,101118.69
2022-12-04T01:46:09.221Z,101117.84
2022-12-04T01:48:41.074Z,101129.19
2022-12-04T01:51:35.828Z,101132.63
2022-12-04T01:54:04.832Z,101124.75
2022-12-04T01:56:36.742Z,101123.88
2022-12-04T01:59:05.226Z,101126.44
2022-12-04T02:01:40.489Z,101119.50
2022-12-04T02:04:07.374Z,101113.47
2022-12-04T02:06:34.467Z,101114.38
2022-12-04T02:09:01.540Z,101120.59
2022-12-04T02:11:52.885Z,101115.50
2022-12-04T02:14:42.453Z,101111.09
2022-12-04T02:17:09.391Z,101106.84
2022-12-04T02:19:57.121Z,101110.44
2022-12-04T02:22:30.053Z,101112.16
2022-12-04T02:25:37.223Z,101112.31
2022-12-04T02:28:17.699Z,101109.84
2022-12-04T02:30:45.745Z,101107.25
2022-12-04T02:33:31.429Z,101102.94
2022-12-04T02:36:13.090Z,101112.50
2022-12-04T02:38:50.366Z,101103.16
2022-12-04T02:41:23.104Z,101104.94
2022-12-04T02:44:03.209Z,101104.16
2022-12-04T02:46:36.711Z,101110.16
2022-12-04T02:49:06.788Z,101110.22
2022-12-04T02:51:36.348Z,101121.66
2022-12-04T02:54:09.362Z,101116.44
2022-12-04T02:56:41.038Z,101119.81
2022-12-04T02:59:14.042Z,101111.16
2022-12-04T03:01:45.581Z,101108.63
2022-12-04T03:04:20.881Z,101102.56
2022-12-04T03:06:57.437Z,101099.94
2022-12-04T03:09:40.855Z,101092.28
2022-12-04T03:12:25.962Z,101105.38
2022-12-04T03:15:00.298Z,101102.75
2022-12-04T03:17:36.254Z,101105.50
2022-12-04T03:20:09.779Z,101102.06
2022-12-04T03:22:40.860Z,101095.97
2022-12-04T03:25:11.922Z,101099.59
2022-12-04T03:27:44.742Z,101099.69
2022-12-04T03:30:16.016Z,101106.75
2022-12-04T03:32:50.403Z,101104.19
2022-12-04T03:35:20.298Z,101105.97
2022-12-04T03:38:00.686Z,101111.13
2022-12-04T03:40:54.258Z,101105.13
2022-12-04T03:43:49.039Z,101103.50
2022-12-04T03:47:04.898Z,101104.53
2022-12-04T03:49:42.583Z,101095.03
2022-12-04T03:52:32.834Z,101108.94
2022-12-04T03:55:01.873Z,101112.34
2022-12-04T03:57:33.877Z,101113.31
2022-12-04T04:00:16.569Z,101111.56
2022-12-04T04:02:57.402Z,101110.63
2022-12-04T04:05:27.454Z,101121.84
2022-12-04T04:08:20.458Z,101112.41
2022-12-04T04:10:49.395Z,101105.44
2022-12-04T04:13:40.798Z,101110.59
2022-12-04T04:16:30.103Z,101107.03
2022-12-04T04:19:17.494Z,101118.34
2022-12-04T04:22:05.111Z,101111.34
2022-12-04T04:24:42.778Z,101108.72
2022-12-04T04:27:09.586Z,101116.44
2022-12-04T04:29:37.643Z,101117.31
2022-12-04T04:32:23.093Z,101114.66
2022-12-04T04:35:04.030Z,101120.59
2022-12-04T04:37:53.121Z,101119.78
2022-12-04T04:40:46.911Z,101118.97
2022-12-04T04:43:38.650Z,101112.94
2022-12-04T04:46:08.318Z,101112.19
2022-12-04T04:48:42.571Z,101118.16
2022-12-04T04:51:10.658Z,101112.94
2022-12-04T04:53:54.146Z,101106.78
2022-12-04T04:56:21.845Z,101110.97
2022-12-04T04:58:49.339Z,101109.31
2022-12-04T05:01:19.548Z,101110.13
2022-12-04T05:03:46.596Z,101111.88
2022-12-04T05:06:13.825Z,101112.69
2022-12-04T05:08:41.243Z,101114.34
2022-12-04T05:11:14.243Z,101111.66
2022-12-04T05:13:41.611Z,101106.44
2022-12-04T05:16:12.887Z,101107.31
2022-12-04T05:18:40.107Z,101109.88
2022-12-04T05:21:09.565Z,101111.59
2022-12-04T05:23:36.339Z,101101.91
2022-12-04T05:26:05.241Z,101109.59
2022-12-04T05:28:32.226Z,101112.41
2022-12-04T05:31:01.440Z,101116.00
2022-12-04T05:33:28.738Z,101110.88
2022-12-04T05:36:00.894Z,101110.91
2022-12-04T05:38:27.894Z,101110.94
2022-12-04T05:40:54.908Z,101110.06
2022-12-04T05:43:21.671Z,101102.19
2022-12-04T05:45:48.727Z,101103.81
2022-12-04T05:48:15.469Z,101108.25
2022-12-04T05:50:42.509Z,101102.25
2022-12-04T05:53:09.454Z,101106.66
2022-12-04T05:55:37.467Z,101102.44
2022-12-04T05:58:04.735Z,101102.50
2022-12-04T06:00:32.216Z,101117.31
2022-12-04T06:02:59.034Z,101112.91
2022-12-04T06:05:26.304Z,101116.53
2022-12-04T06:07:53.146Z,101107.03
2022-12-04T06:10:20.178Z,101118.31
2022-12-04T06:12:47.042Z,101114.91
2022-12-04T06:15:14.058Z,101125.50
2022-12-04T06:17:40.801Z,101117.72
2022-12-04T06:20:11.711Z,101125.47
2022-12-04T06:22:38.873Z,101125.47
2022-12-04T06:25:07.054Z,101129.03
2022-12-04T06:27:34.133Z,101135.88
2022-12-04T06:30:01.531Z,101129.03
2022-12-04T06:32:28.366Z,101130.00
2022-12-04T06:34:55.687Z,101117.84
2022-12-04T06:37:24.452Z,101123.84
2022-12-04T06:39:51.715Z,101130.84
2022-12-04T06:42:18.724Z,101129.78
2022-12-04T06:44:45.768Z,101128.13
2022-12-04T06:47:15.365Z,101127.38
2022-12-04T06:49:42.462Z,101124.78
2022-12-04T06:52:09.189Z,101126.50
2022-12-04T06:54:36.293Z,101123.88
2022-12-04T06:57:03.028Z,101121.19
2022-12-04T06:59:30.141Z,101116.88
2022-12-04T07:01:57.033Z,101116.88
2022-12-04T07:04:24.755Z,101114.19
2022-12-04T07:06:51.483Z,101120.25
2022-12-04T07:09:18.579Z,101119.41
2022-12-04T07:11:46.106Z,101129.81
2022-12-04T07:14:14.173Z,101127.94
2022-12-04T07:16:42.703Z,101134.91
2022-12-04T07:19:11.707Z,101123.47
2022-12-04T07:21:38.893Z,101136.50
2022-12-04T07:24:06.194Z,101130.53
2022-12-04T07:26:33.148Z,101131.38
2022-12-04T07:29:00.442Z,101127.94
2022-12-04T07:31:29.468Z,101131.34
2022-12-04T07:33:57.878Z,101138.22
2022-12-04T07:36:26.238Z,101122.63
2022-12-04T07:38:55.930Z,101132.00
2022-12-04T07:41:22.744Z,101134.53
2022-12-04T07:43:49.830Z,101127.44
2022-12-04T07:46:20.748Z,101120.41
2022-12-04T07:48:47.871Z,101117.69
2022-12-04T07:51:20.726Z,101122.00
2022-12-04T07:53:48.076Z,101133.97
2022-12-04T07:56:15.511Z,101121.72
2022-12-04T07:58:43.299Z,101122.41
2022-12-04T08:01:17.265Z,101125.81
2022-12-04T08:03:48.418Z,101122.25
2022-12-04T08:06:20.254Z,101111.75
2022-12-04T08:08:47.935Z,101119.31
2022-12-04T08:11:17.492Z,101121.00
2022-12-04T08:13:45.467Z,101110.44
2022-12-04T08:16:13.227Z,101109.44
2022-12-04T08:18:41.474Z,101130.28
2022-12-04T08:21:14.075Z,101133.56
2022-12-04T08:23:42.684Z,101136.09
2022-12-04T08:26:09.992Z,101127.25
2022-12-04T08:28:38.097Z,101108.81
2022-12-04T08:31:07.525Z,101106.88
2022-12-04T08:33:35.232Z,101109.31
2022-12-04T08:36:02.339Z,101103.97
2022-12-04T08:38:29.387Z,101123.03
2022-12-04T08:41:00.263Z,101118.50
2022-12-04T08:43:27.452Z,101121.81
2022-12-04T08:45:58.871Z,101119.06
2022-12-04T08:48:26.626Z,101117.88
2022-12-04T08:50:53.855Z,101121.22
2022-12-04T08:53:21.678Z,101120.28
2022-12-04T08:55:48.537Z,101119.00
2022-12-04T08:58:16.059Z,101116.91
2022-12-04T09:00:43.170Z,101127.97
2022-12-04T09:03:14.747Z,101127.91
2022-12-04T09:05:42.149Z,101130.47
2022-12-04T09:08:09.389Z,101124.97
2022-12-04T09:10:36.695Z,101115.53
2022-12-04T09:13:04.066Z,101123.44
2022-12-04T09:15:31.678Z,101111.50
2022-12-04T09:17:59.221Z,101114.19
2022-12-04T09:20:26.262Z,101111.25
2022-12-04T09:23:03.919Z,101109.34
2022-12-04T09:25:32.234Z,101107.44
2022-12-04T09:27:59.239Z,101107.38
2022-12-04T09:30:25.969Z,101107.38
2022-12-04T09:32:53.239Z,101104.75
2022-12-04T09:35:20.071Z,101099.41
2022-12-04T09:37:47.103Z,101092.19
2022-12-04T09:40:41.002Z,101091.00
2022-12-04T09:43:26.191Z,101083.22
2022-12-04T09:45:58.816Z,101083.91
2022-12-04T09:48:35.916Z,101072.56
2022-12-04T09:51:05.766Z,101072.25
2022-12-04T09:53:47.592Z,101077.69
2022-12-04T09:56:19.827Z,101068.72
2022-12-04T09:58:58.327Z,101070.75
2022-12-04T10:01:30.155Z,101065.19
2022-12-04T10:04:02.651Z,101069.00
2022-12-04T10:06:56.235Z,101060.63
2022-12-04T10:09:36.466Z,101057.66
2022-12-04T10:12:19.174Z,101044.25
2022-12-04T10:15:11.048Z,101036.66
2022-12-04T10:17:59.555Z,101037.06
2022-12-04T10:21:04.030Z,101033.84
2022-12-04T10:23:49.630Z,101031.56
2022-12-04T10:26:18.630Z,101030.06
2022-12-04T10:28:55.214Z,101033.91
2022-12-04T10:31:24.479Z,101024.03
2022-12-04T10:33:56.081Z,101016.53
2022-12-04T10:36:29.237Z,101017.16
2022-12-04T10:39:00.185Z,101016.25
2022-12-04T10:41:36.230Z,101009.44
2022-12-04T10:44:03.098Z,101009.47
2022-12-04T10:46:34.239Z,101006.97
2022-12-04T10:49:13.979Z,100999.09
2022-12-04T10:51:43.549Z,100996.63
2022-12-04T10:54:21.847Z,100998.88
2022-12-04T10:56:53.105Z,100996.75
2022-12-04T10:59:20.086Z,100984.78
2022-12-04T11:01:47.360Z,100981.63
2022-12-04T11:04:23.797Z,100976.31
2022-12-04T11:06:59.489Z,100971.38
2022-12-04T11:09:26.634Z,100967.44
2022-12-04T11:11:53.710Z,100961.31
2022-12-04T11:14:23.051Z,100955.25
2022-12-04T11:17:01.671Z,100951.84
2022-12-04T11:19:34.754Z,100953.34
2022-12-04T11:22:17.712Z,100950.31
2022-12-04T11:24:52.942Z,100945.00
2022-12-04T11:27:25.846Z,100944.81
2022-12-04T11:29:53.033Z,100939.34
2022-12-04T11:32:22.249Z,100939.47
2022-12-04T11:34:51.919Z,100944.25
2022-12-04T11:37:24.038Z,100941.84
2022-12-04T11:39:52.295Z,100932.50
2022-12-04T11:42:27.247Z,100938.81
2022-12-04T11:45:20.891Z,100932.16
2022-12-04T11:47:59.193Z,100915.53
2022-12-04T11:51:01.494Z,100917.13
2022-12-04T11:53:43.061Z,100913.00
2022-12-04T11:56:40.005Z,100914.84
2022-12-04T11:59:34.498Z,100908.03
2022-12-04T12:02:34.922Z,100905.63
2022-12-04T12:05:24.642Z,100896.16
2022-12-04T12:08:24.119Z,100900.84
2022-12-04T12:10:51.121Z,100900.41
2022-12-04T12:13:30.774Z,100898.38
2022-12-04T12:16:19.769Z,100894.16
2022-12-04T12:19:02.779Z,100897.72
2022-12-04T12:22:05.167Z,100902.28
2022-12-04T12:25:07.629Z,100902.00
2022-12-04T12:27:53.276Z,100905.78
2022-12-04T12:30:22.515Z,100898.94
2022-12-04T12:32:50.715Z,100903.13
2022-12-04T12:35:30.559Z,100908.16
2022-12-04T12:38:05.710Z,100909.31
2022-12-04T12:40:42.221Z,100907.47
2022-12-04T12:43:24.507Z,100912.00
2022-12-04T12:45:56.957Z,100913.63
2022-12-04T12:48:27.410Z,100901.41
2022-12-04T12:51:29.671Z,100901.34
2022-12-04T12:54:30.929Z,100904.13
2022-12-04T12:57:06.036Z,100898.50
2022-12-04T12:59:34.279Z,100896.75
2022-12-04T13:02:25.554Z,100890.59
2022-12-04T13:04:55.395Z,100883.38
2022-12-04T13:07:31.528Z,100891.28
2022-12-04T13:10:43.300Z,100887.69
2022-12-04T13:13:33.129Z,100887.47
2022-12-04T13:16:20.180Z,100885.22
2022-12-04T13:19:18.608Z,100883.38
2022-12-04T13:22:13.331Z,100887.59
2022-12-04T13:24:39.868Z,100890.94
2022-12-04T13:27:25.886Z,100899.03
2022-12-04T13:30:03.846Z,100896.72
2022-12-04T13:32:43.101Z,100896.16
2022-12-04T13:35:50.309Z,100912.25
2022-12-04T13:38:55.100Z,100909.56
2022-12-04T13:41:27.716Z,100915.34
2022-12-04T13:43:57.521Z,100911.47
2022-12-04T13:46:31.383Z,100905.09
2022-12-04T13:49:26.114Z,100904.56
2022-12-04T13:51:53.517Z,100907.69
2022-12-04T13:54:25.449Z,100902.00
2022-12-04T13:56:58.120Z,100896.94
2022-12-04T13:59:28.291Z,100905.56
2022-12-04T14:02:06.510Z,100907.56
2022-12-04T14:04:46.127Z,100915.72
2022-12-04T14:07:37.454Z,100924.72
2022-12-04T14:10:08.520Z,100925.22
2022-12-04T14:12:39.718Z,100926.38
2022-12-04T14:15:27.986Z,100927.09
2022-12-04T14:18:26.667Z,100934.63
2022-12-04T14:21:03.119Z,100931.50
2022-12-04T14:23:36.250Z,100930.84
2022-12-04T14:26:05.387Z,100925.38
2022-12-04T14:28:36.026Z,100930.88
2022-12-04T14:31:31.015Z,100935.53
2022-12-04T14:34:35.464Z,100923.81
2022-12-04T14:37:03.481Z,100929.31
2022-12-04T14:39:44.434Z,100916.72
2022-12-04T14:42:24.967Z,100934.31
2022-12-04T14:44:57.599Z,100926.97
2022-12-04T14:47:40.985Z,100924.75
2022-12-04T14:50:26.286Z,100919.50
2022-12-04T14:52:59.138Z,100930.56
2022-12-04T14:55:48.845Z,100927.44
2022-12-04T14:58:31.796Z,100922.03
2022-12-04T15:01:03.839Z,100931.22
2022-12-04T15:03:36.513Z,100932.38
2022-12-04T15:06:09.192Z,100937.25
2022-12-04T15:08:36.342Z,100929.75
2022-12-04T15:11:24.863Z,100940.25
2022-12-04T15:13:51.950Z,100933.44
2022-12-04T15:16:23.086Z,100939.06
2022-12-04T15:18:58.698Z,100943.31
2022-12-04T15:21:36.640Z,100945.03
2022-12-04T15:24:09.509Z,100932.75
2022-12-04T15:26:37.380Z,100926.84
2022-12-04T15:29:07.615Z,100937.28
2022-12-04T15:31:48.314Z,100932.19
2022-12-04T15:34:22.210Z,100940.13
2022-12-04T15:36:54.371Z,100934.13
2022-12-04T15:39:26.359Z,100941.16
2022-12-04T15:42:06.079Z,100949.94
2022-12-04T15:44:35.293Z,100950.13
2022-12-04T15:47:16.175Z,100947.53
2022-12-04T15:49:43.339Z,100947.03
2022-12-04T15:52:10.149Z,100948.28
2022-12-04T15:54:41.467Z,100943.09
2022-12-04T15:57:21.028Z,100944.91
2022-12-04T15:59:52.681Z,100945.88
2022-12-04T16:02:29.845Z,100944.81
2022-12-04T16:04:57.721Z,100942.47
2022-12-04T16:07:29.912Z,100946.09
2022-12-04T16:10:04.793Z,100945.53
2022-12-04T16:12:32.754Z,100950.78
2022-12-04T16:14:59.791Z,100939.31
2022-12-04T16:17:34.225Z,100946.09
2022-12-04T16:20:05.232Z,100945.19
2022-12-04T16:22:32.009Z,100943.69
2022-12-04T16:24:59.497Z,100943.75
2022-12-04T16:27:26.652Z,100941.84
2022-12-04T16:29:53.859Z,100946.50
2022-12-04T16:32:30.674Z,100937.09
2022-12-04T16:34:58.146Z,100942.47
2022-12-04T16:37:27.003Z,100939.72
2022-12-04T16:39:54.065Z,100944.94
2022-12-04T16:42:26.384Z,100939.78
2022-12-04T16:44:53.702Z,100940.84
2022-12-04T16:47:20.837Z,100949.50
2022-12-04T16:49:50.324Z,100939.78
2022-12-04T16:52:17.354Z,100935.41
2022-12-04T16:54:44.443Z,100950.94
2022-12-04T16:57:11.298Z,100942.19
2022-12-04T16:59:38.618Z,100941.25
2022-12-04T17:02:16.333Z,100945.69
2022-12-04T17:04:43.589Z,100945.75
2022-12-04T17:07:10.442Z,100943.19
2022-12-04T17:09:37.281Z,100941.28
2022-12-04T17:12:04.460Z,100942.00
2022-12-04T17:14:31.188Z,100946.69
2022-12-04T17:16:58.852Z,100952.41
2022-12-04T17:19:25.590Z,100949.78
2022-12-04T17:21:52.690Z,100951.69
2022-12-04T17:24:19.487Z,100953.28
2022-12-04T17:26:46.558Z,100951.75
2022-12-04T17:29:13.332Z,100954.38
2022-12-04T17:31:40.428Z,100956.34
2022-12-04T17:34:07.207Z,100959.84
2022-12-04T17:36:34.247Z,100956.34
2022-12-04T17:39:03.769Z,100965.75
2022-12-04T17:41:31.039Z,100961.59
2022-12-04T17:43:59.940Z,100960.56
2022-12-04T17:46:27.017Z,100962.53
2022-12-04T17:48:56.710Z,100966.19
2022-12-04T17:51:25.479Z,100966.34
2022-12-04T17:53:52.549Z,100964.63
2022-12-04T17:56:22.771Z,100967.41
2022-12-04T17:58:50.323Z,100964.69
2022-12-04T18:01:24.095Z,100963.78
2022-12-04T18:03:59.854Z,100962.09
2022-12-04T18:06:29.938Z,100955.22
2022-12-04T18:08:57.313Z,100954.41
2022-12-04T18:11:27.556Z,100961.47
2022-12-04T18:14:00.246Z,100963.13
2022-12-04T18:16:31.083Z,100970.09
2022-12-04T18:19:00.538Z,100968.66
2022-12-04T18:21:28.530Z,100964.69
2022-12-04T18:24:00.118Z,100970.94
2022-12-04T18:26:31.815Z,100967.47
2022-12-04T18:28:58.593Z,100973.03
2022-12-04T18:31:25.830Z,100973.72
2022-12-04T18:33:53.622Z,100975.41
2022-12-04T18:36:23.972Z,100984.38
2022-12-04T18:38:59.685Z,100989.81
2022-12-04T18:41:28.573Z,100990.66
2022-12-04T18:43:55.674Z,100991.72
2022-12-04T18:46:23.018Z,100981.75
2022-12-04T18:48:53.319Z,100996.50
2022-12-04T18:51:26.899Z,100990.28
2022-12-04T18:53:57.349Z,100984.19
2022-12-04T18:56:24.485Z,100986.63
2022-12-04T18:58:56.858Z,100980.25
2022-12-04T19:01:24.350Z,100979.69
2022-12-04T19:03:56.497Z,100975.34
2022-12-04T19:06:51.388Z,100980.69
2022-12-04T19:09:35.452Z,100975.00
2022-12-04T19:12:09.401Z,100975.94
2022-12-04T19:14:37.919Z,100974.06
2022-12-04T19:17:05.050Z,100976.69
2022-12-04T19:19:32.045Z,100981.94
2022-12-04T19:22:01.127Z,100986.25
2022-12-04T19:24:27.954Z,100983.94
2022-12-04T19:26:55.494Z,100986.63
2022-12-04T19:29:22.596Z,100974.56
2022-12-04T19:31:53.481Z,100989.75
2022-12-04T19:34:23.299Z,100987.81
2022-12-04T19:36:51.143Z,100985.22
2022-12-04T19:39:17.899Z,100987.38
2022-12-04T19:41:47.278Z,100985.91
2022-12-04T19:44:46.835Z,100983.19
2022-12-04T19:47:01.753Z,100991.97
2022-12-04T19:49:28.824Z,100983.94
2022-12-04T19:51:55.844Z,100978.94
2022-12-04T19:54:23.797Z,100987.91
2022-12-04T19:56:52.666Z,100987.13
2022-12-04T19:59:20.403Z,100991.41
2022-12-04T20:01:47.660Z,100979.88
2022-12-04T20:04:14.515Z,100983.28
2022-12-04T20:06:44.281Z,100985.16
2022-12-04T20:09:14.357Z,100994.03
2022-12-04T20:11:42.103Z,100995.50
2022-12-04T20:14:09.240Z,100995.59
2022-12-04T20:16:37.108Z,100992.38
2022-12-04T20:19:06.514Z,100999.59
2022-12-04T20:21:34.081Z,100998.69
2022-12-04T20:24:04.031Z,101003.91
2022-12-04T20:26:35.770Z,100998.88
2022-12-04T20:29:03.232Z,101007.56
2022-12-04T20:31:36.570Z,101003.63
2022-12-04T20:34:06.137Z,101009.03
2022-12-04T20:36:39.450Z,101011.72
2022-12-04T20:39:07.184Z,101015.38
2022-12-04T20:41:34.510Z,101014.72
2022-12-04T20:44:04.800Z,101008.69
2022-12-04T20:46:37.809Z,101012.47
2022-12-04T20:49:08.549Z,101018.06
2022-12-04T20:51:41.511Z,101016.31
2022-12-04T20:54:11.371Z,101016.63
2022-12-04T20:56:39.061Z,101022.34
2022-12-04T20:59:08.507Z,101020.06
2022-12-04T21:01:36.628Z,101025.50
2022-12-04T21:04:04.178Z,101018.75
2022-12-04T21:06:39.242Z,101024.50
2022-12-04T21:09:12.841Z,101022.66
2022-12-04T21:11:42.594Z,101015.81
2022-12-04T21:14:38.078Z,101016.28
2022-12-04T21:17:07.432Z,101016.09
2022-12-04T21:19:34.307Z,101011.97
2022-12-04T21:22:01.372Z,101014.59
2022-12-04T21:24:28.775Z,101011.16
2022-12-04T21:26:56.385Z,101008.72
2022-12-04T21:29:23.476Z,101016.75
2022-12-04T21:31:50.548Z,101012.78
2022-12-04T21:34:18.193Z,101017.25
2022-12-04T21:36:46.445Z,101018.22
2022-12-04T21:39:15.036Z,101019.81
2022-12-04T21:42:00.610Z,101018.16
2022-12-04T21:44:27.357Z,101024.16
2022-12-04T21:46:54.878Z,101026.53
2022-12-04T21:49:21.985Z,101022.00
2022-12-04T21:51:57.188Z,101027.66
2022-12-04T21:54:25.265Z,101014.69
2022-12-04T21:56:52.435Z,101008.78
2022-12-04T21:59:19.219Z,101009.56
2022-12-04T22:01:46.444Z,101031.31
2022-12-04T22:04:13.309Z,101025.88
2022-12-04T22:06:40.438Z,101023.22
2022-12-04T22:09:09.905Z,101024.31
2022-12-04T22:11:38.173Z,101029.91
2022-12-04T22:14:05.014Z,101026.81
2022-12-04T22:16:35.713Z,101035.81
2022-12-04T22:19:05.158Z,101025.06
2022-12-04T22:21:32.414Z,101029.03
2022-12-04T22:24:00.933Z,101034.28
2022-12-04T22:26:29.329Z,101024.16
2022-12-04T22:28:56.830Z,101033.31
2022-12-04T22:31:25.960Z,101025.78
2022-12-04T22:33:57.976Z,101024.16
2022-12-04T22:36:32.264Z,101021.47
2022-12-04T22:39:15.201Z,101009.84
2022-12-04T22:41:42.248Z,101019.72
2022-12-04T22:44:08.979Z,101022.63
2022-12-04T22:46:36.153Z,101022.34
2022-12-04T22:49:03.091Z,101009.94
2022-12-04T22:51:30.478Z,101010.44
2022-12-04T22:53:58.634Z,101020.03
2022-12-04T22:56:28.253Z,101010.53
2022-12-04T22:58:55.326Z,101017.81
2022-12-04T23:01:25.553Z,101020.03
2022-12-04T23:03:53.254Z,101020.56
2022-12-04T23:06:22.346Z,101022.56
2022-12-04T23:08:49.480Z,101022.16
2022-12-04T23:11:19.326Z,101016.78
2022-12-04T23:13:54.338Z,101021.03
2022-12-04T23:16:22.916Z,101011.38
2022-12-04T23:18:49.757Z,101015.09
2022-12-04T23:21:18.815Z,101005.25
2022-12-04T23:23:47.088Z,101014.97
2022-12-04T23:26:20.288Z,101002.88
2022-12-04T23:28:47.460Z,101000.13
2022-12-04T23:31:15.416Z,101006.38
2022-12-04T23:33:42.834Z,100998.69
2022-12-04T23:36:11.802Z,100996.88
2022-12-04T23:38:40.878Z,100997.47
2022-12-04T23:41:11.633Z,100998.94
2022-12-04T23:43:53.958Z,101007.34
2022-12-04T23:46:24.991Z,101005.84
2022-12-04T23:48:51.814Z,101008.50
2022-12-04T23:51:20.333Z,101013.84
2022-12-04T23:53:47.961Z,101013.34
2022-12-04T23:56:17.931Z,101016.09
2022-12-04T23:58:46.636Z,101017.00
